Time;durP1;ratioP1;P1;durP2;ratioP2;P2;SDS_P1;SDS_P2;PMS_P1;PMS_P2;Temp;Humidity;BMP_temperature;BMP_pressure;BME280_temperature;BME280_humidity;BME280_pressure;Samples;Min_cycle;Max_cycle;Signal;HPM_P1;HPM_P2
2021/03/09 00:00:08;;;;;;;11.83;8.67;;;;;;;4.76;60.38;96495.22;5055591;28;20433;-66
2021/03/09 00:02:33;;;;;;;9.50;7.87;;;;;;;4.75;59.69;96491.00;5057982;28;20183;-66
2021/03/09 00:04:59;;;;;;;8.87;7.50;;;;;;;4.63;59.97;96495.09;5056971;28;20421;-66
2021/03/09 00:07:24;;;;;;;10.07;7.63;;;;;;;4.47;61.03;96500.53;5056350;28;20195;-66
2021/03/09 00:09:49;;;;;;;9.43;8.00;;;;;;;4.61;60.98;96489.28;5060098;28;20540;-66
2021/03/09 00:12:15;;;;;;;11.20;8.10;;;;;;;4.69;59.75;96494.38;5074805;28;20197;-66
2021/03/09 00:14:40;;;;;;;10.13;7.80;;;;;;;4.58;59.94;96485.25;5055271;28;20181;-65
2021/03/09 00:17:06;;;;;;;8.37;7.57;;;;;;;4.57;60.22;96483.63;5066494;28;20196;-58
2021/03/09 00:19:31;;;;;;;10.73;8.20;;;;;;;4.46;60.35;96485.91;5064965;28;20185;-66
2021/03/09 00:21:57;;;;;;;10.63;8.00;;;;;;;4.59;59.41;96488.66;5055782;28;20667;-59
2021/03/09 00:24:22;;;;;;;9.03;7.53;;;;;;;4.50;60.23;96487.16;5056047;28;20164;-66
2021/03/09 00:26:47;;;;;;;8.47;7.37;;;;;;;4.51;60.31;96486.19;5063786;28;20592;-58
2021/03/09 00:29:13;;;;;;;9.00;8.07;;;;;;;4.51;60.36;96483.56;5055353;28;20228;-65
2021/03/09 00:31:38;;;;;;;9.30;7.80;;;;;;;4.37;60.47;96481.81;5055473;28;20206;-66
2021/03/09 00:34:03;;;;;;;9.60;8.00;;;;;;;4.48;60.42;96476.94;5055287;28;20186;-58
2021/03/09 00:36:29;;;;;;;10.67;8.00;;;;;;;4.43;60.71;96476.69;5055172;28;20196;-59
2021/03/09 00:38:54;;;;;;;10.77;8.17;;;;;;;4.45;60.16;96473.91;5069946;28;20717;-66
2021/03/09 00:41:20;;;;;;;8.73;7.20;;;;;;;4.45;60.42;96468.69;5055411;28;20568;-65
2021/03/09 00:43:45;;;;;;;8.60;7.70;;;;;;;4.38;60.54;96475.63;5055465;28;20265;-66
2021/03/09 00:46:10;;;;;;;10.67;8.60;;;;;;;4.38;61.19;96466.03;5062137;28;20194;-58
2021/03/09 00:48:37;;;;;;;12.80;8.80;;;;;;;4.31;61.33;96478.19;5055979;28;20202;-66
2021/03/09 00:51:03;;;;;;;9.00;6.87;;;;;;;4.31;60.51;96470.38;5058874;28;20203;-58
2021/03/09 00:53:28;;;;;;;10.87;8.93;;;;;;;4.32;60.85;96465.97;5055074;28;20424;-66
2021/03/09 00:55:53;;;;;;;9.80;7.80;;;;;;;4.32;61.21;96471.16;5063124;28;20184;-59
2021/03/09 00:58:19;;;;;;;11.10;7.77;;;;;;;4.35;60.94;96470.81;5057864;28;20198;-66
2021/03/09 01:00:44;;;;;;;10.20;7.37;;;;;;;4.27;61.04;96469.13;5055063;28;20596;-66
2021/03/09 01:03:09;;;;;;;7.67;6.97;;;;;;;4.26;61.38;96469.31;5054670;28;20254;-66
2021/03/09 01:05:35;;;;;;;9.03;7.27;;;;;;;4.25;61.29;96463.28;5054968;28;20168;-58
2021/03/09 01:08:00;;;;;;;9.30;7.40;;;;;;;4.26;61.34;96469.31;5054576;28;20874;-58
2021/03/09 01:10:26;;;;;;;9.97;8.13;;;;;;;4.38;60.96;96471.25;5054868;28;20509;-66
2021/03/09 01:12:51;;;;;;;10.97;7.90;;;;;;;4.34;60.78;96466.59;5055880;28;20202;-58
2021/03/09 01:15:17;;;;;;;10.73;7.90;;;;;;;4.37;60.99;96468.81;5056152;28;20666;-59
2021/03/09 01:17:42;;;;;;;10.53;7.93;;;;;;;4.38;60.59;96460.84;5067107;28;20244;-58
2021/03/09 01:20:09;;;;;;;11.07;8.00;;;;;;;4.28;60.47;96467.31;5064832;28;20188;-66
2021/03/09 01:22:34;;;;;;;13.50;7.80;;;;;;;4.15;61.80;96460.97;5071872;28;20177;-58
2021/03/09 01:25:00;;;;;;;12.50;8.40;;;;;;;4.26;60.53;96457.09;5054761;28;20402;-58
2021/03/09 01:27:25;;;;;;;9.70;8.00;;;;;;;4.10;60.27;96460.72;5054658;28;20619;-66
2021/03/09 01:29:51;;;;;;;9.03;7.63;;;;;;;4.08;60.38;96452.31;5054315;28;20182;-66
2021/03/09 01:32:16;;;;;;;9.50;7.73;;;;;;;4.11;60.49;96453.75;5054073;28;20198;-58
2021/03/09 01:34:42;;;;;;;10.43;8.37;;;;;;;3.97;61.21;96444.97;5054282;28;20185;-58
2021/03/09 01:37:07;;;;;;;11.87;8.10;;;;;;;4.00;61.36;96451.63;5054531;28;20213;-66
2021/03/09 01:39:33;;;;;;;9.90;7.77;;;;;;;4.01;60.77;96440.22;5074319;28;20175;-58
2021/03/09 01:41:58;;;;;;;8.93;7.77;;;;;;;4.01;61.04;96437.63;5061128;28;20298;-58
2021/03/09 01:44:25;;;;;;;9.70;7.73;;;;;;;4.01;61.26;96438.44;5053860;28;20266;-59
2021/03/09 01:46:50;;;;;;;10.47;7.70;;;;;;;3.98;60.59;96435.41;5065803;28;20172;-65
2021/03/09 01:49:17;;;;;;;10.20;7.53;;;;;;;3.79;62.40;96434.16;5055095;28;20446;-66
2021/03/09 01:51:44;;;;;;;9.60;7.33;;;;;;;3.77;62.39;96427.53;5054388;28;20266;-66
2021/03/09 01:54:13;;;;;;;8.63;7.50;;;;;;;3.71;61.44;96423.91;5055276;28;21006;-58
2021/03/09 01:56:40;;;;;;;7.93;6.77;;;;;;;3.40;63.50;96425.88;5060460;28;20417;-58
2021/03/09 01:59:07;;;;;;;9.40;7.70;;;;;;;3.36;63.70;96416.03;5056386;28;20444;-65
2021/03/09 02:01:34;;;;;;;10.47;8.13;;;;;;;2.69;66.84;96413.47;5053983;28;20403;-66
2021/03/09 02:03:59;;;;;;;9.63;8.20;;;;;;;2.88;66.78;96423.31;5054125;28;20783;-58
2021/03/09 02:06:25;;;;;;;8.53;7.30;;;;;;;2.72;67.46;96414.88;5061468;28;20426;-58
2021/03/09 02:08:51;;;;;;;12.10;7.93;;;;;;;3.08;66.40;96413.22;5071279;28;20245;-65
2021/03/09 02:11:34;;;;;;;10.67;8.40;;;;;;;2.82;66.76;96407.66;5061564;28;20201;-66
2021/03/09 02:14:06;;;;;;;10.00;7.63;;;;;;;2.54;68.44;96410.00;5059860;28;20418;-58
2021/03/09 02:16:46;;;;;;;8.93;7.40;;;;;;;2.52;68.52;96406.00;5061897;28;20480;-58
2021/03/09 02:19:30;;;;;;;10.70;7.87;;;;;;;2.58;68.38;96407.88;5073759;28;20430;-66
2021/03/09 02:22:10;;;;;;;10.30;8.20;;;;;;;2.23;70.02;96400.72;5073097;28;20418;-66
2021/03/09 02:24:58;;;;;;;9.43;7.40;;;;;;;1.48;73.43;96402.28;5073705;28;20414;-66
2021/03/09 02:27:35;;;;;;;9.20;7.67;;;;;;;1.73;73.63;96399.41;5059350;28;20446;-58
2021/03/09 02:30:03;;;;;;;8.60;7.33;;;;;;;2.20;71.77;96399.25;5053818;28;20409;-58
2021/03/09 02:32:32;;;;;;;10.40;8.50;;;;;;;2.58;69.30;96397.50;5053334;28;20553;-58
2021/03/09 02:35:00;;;;;;;11.10;8.77;;;;;;;2.81;68.11;96393.06;5053423;28;20900;-58
2021/03/09 02:37:33;;;;;;;11.07;8.10;;;;;;;2.52;68.61;96386.03;5052973;28;20825;-66
2021/03/09 02:39:59;;;;;;;10.13;7.80;;;;;;;1.86;72.01;96391.06;5058029;28;20777;-63
2021/03/09 02:42:27;;;;;;;10.73;8.40;;;;;;;1.78;72.89;96388.53;5037523;28;20417;-59
2021/03/09 02:44:58;;;;;;;10.03;7.80;;;;;;;2.27;71.16;96384.63;5054867;28;20406;-59
2021/03/09 02:47:24;;;;;;;10.40;7.90;;;;;;;2.45;69.86;96392.09;5062122;28;20791;-58
2021/03/09 02:49:51;;;;;;;12.60;8.57;;;;;;;2.63;68.84;96387.41;5053468;28;20411;-58
2021/03/09 02:52:19;;;;;;;11.97;8.70;;;;;;;2.76;68.19;96387.63;5069365;28;20463;-58
2021/03/09 02:54:47;;;;;;;10.50;8.50;;;;;;;2.73;67.69;96387.97;5073376;28;20433;-66
2021/03/09 02:57:15;;;;;;;10.43;8.07;;;;;;;2.86;68.04;96380.41;5063687;28;20437;-59
2021/03/09 02:59:41;;;;;;;11.50;9.07;;;;;;;2.94;67.68;96390.69;5053120;28;20421;-58
2021/03/09 03:02:08;;;;;;;11.03;8.90;;;;;;;2.95;67.54;96390.50;5055981;28;21072;-59
2021/03/09 03:04:35;;;;;;;11.70;9.40;;;;;;;2.95;66.91;96381.94;5053669;28;20430;-58
2021/03/09 03:07:01;;;;;;;10.13;7.80;;;;;;;2.88;66.90;96383.63;5052606;28;20790;-59
2021/03/09 03:09:28;;;;;;;10.93;8.50;;;;;;;2.84;66.49;96379.78;5073264;28;20427;-66
2021/03/09 03:11:54;;;;;;;10.30;8.77;;;;;;;2.50;68.91;96369.84;5072656;28;20463;-59
2021/03/09 03:14:21;;;;;;;13.30;9.03;;;;;;;2.24;69.51;96376.41;5059861;28;20423;-59
2021/03/09 03:16:47;;;;;;;11.00;8.40;;;;;;;2.22;69.87;96375.75;5056293;28;20837;-66
2021/03/09 03:19:14;;;;;;;12.90;8.20;;;;;;;2.32;70.24;96377.13;5076025;28;20429;-66
2021/03/09 03:21:41;;;;;;;9.00;7.93;;;;;;;2.03;71.03;96377.03;5059115;28;20421;-66
2021/03/09 03:24:09;;;;;;;11.47;8.77;;;;;;;1.48;73.63;96373.81;5057156;28;20407;-58
2021/03/09 03:26:42;;;;;;;9.80;8.33;;;;;;;1.59;73.76;96376.84;5060051;28;20434;-65
2021/03/09 03:29:09;;;;;;;11.47;9.20;;;;;;;2.10;71.39;96386.53;5055584;28;20450;-58
2021/03/09 03:31:35;;;;;;;14.60;8.83;;;;;;;1.96;70.81;96371.75;5059627;28;20477;-58
2021/03/09 03:34:03;;;;;;;13.00;9.17;;;;;;;1.85;72.86;96369.53;5076698;28;20475;-58
2021/03/09 03:36:31;;;;;;;10.10;8.83;;;;;;;2.04;71.48;96366.53;5076006;28;20439;-58
2021/03/09 03:38:57;;;;;;;10.07;8.50;;;;;;;2.30;70.81;96367.94;5076391;28;20447;-58
2021/03/09 03:41:22;;;;;;;17.60;9.63;;;;;;;2.22;69.54;96373.19;5062948;28;20421;-66
2021/03/09 03:43:48;;;;;;;11.93;8.60;;;;;;;1.99;71.85;96373.19;5076500;28;20229;-58
2021/03/09 03:46:13;;;;;;;11.23;9.20;;;;;;;2.10;70.86;96370.19;5062300;28;20175;-58
2021/03/09 03:48:39;;;;;;;12.97;8.90;;;;;;;1.89;72.09;96368.22;5069820;28;20242;-58
2021/03/09 03:51:12;;;;;;;16.00;9.70;;;;;;;2.15;71.07;96369.66;5068582;28;20191;-66
2021/03/09 03:53:53;;;;;;;10.90;9.47;;;;;;;2.17;70.22;96370.31;5056612;28;20562;-59
2021/03/09 03:56:57;;;;;;;10.43;8.60;;;;;;;1.96;71.33;96370.94;5062975;28;20420;-58
2021/03/09 03:59:31;;;;;;;14.67;10.60;;;;;;;2.03;71.01;96371.84;5036806;28;20510;-58
2021/03/09 04:02:00;;;;;;;9.93;8.93;;;;;;;2.02;71.50;96370.25;5055947;28;20969;-59
2021/03/09 04:04:28;;;;;;;12.77;10.13;;;;;;;1.63;72.34;96361.75;5066147;28;20779;-58
2021/03/09 04:06:54;;;;;;;12.00;9.53;;;;;;;1.65;73.32;96365.78;5055720;28;20423;-58
2021/03/09 04:09:21;;;;;;;10.90;9.17;;;;;;;1.80;73.38;96366.66;5056165;28;20434;-58
2021/03/09 04:11:47;;;;;;;11.60;9.50;;;;;;;1.89;72.02;96363.03;5064257;28;20463;-58
2021/03/09 04:14:15;;;;;;;13.23;10.10;;;;;;;1.77;72.55;96364.44;5076156;28;20417;-60
2021/03/09 04:16:43;;;;;;;10.33;9.27;;;;;;;1.59;73.10;96363.88;5063967;28;20457;-66
2021/03/09 04:19:12;;;;;;;11.70;10.00;;;;;;;1.62;73.22;96360.94;5061308;28;20931;-65
2021/03/09 04:21:38;;;;;;;12.30;9.67;;;;;;;1.67;72.57;96358.66;5076048;28;20488;-58
2021/03/09 04:24:05;;;;;;;13.60;10.43;;;;;;;1.70;73.73;96352.34;5076274;28;20421;-62
2021/03/09 04:26:32;;;;;;;11.03;9.53;;;;;;;1.80;72.83;96356.31;5064522;28;20418;-58
2021/03/09 04:28:58;;;;;;;11.93;10.00;;;;;;;1.45;75.09;96362.00;5067051;28;20940;-66
2021/03/09 04:31:25;;;;;;;12.93;9.90;;;;;;;1.66;73.93;96359.63;5068705;28;20457;-66
2021/03/09 04:33:51;;;;;;;11.57;9.90;;;;;;;1.22;75.54;96357.72;5075606;28;20937;-66
2021/03/09 04:36:18;;;;;;;11.27;10.07;;;;;;;0.72;77.36;96360.66;5075040;28;20428;-66
2021/03/09 04:38:45;;;;;;;15.67;11.13;;;;;;;1.23;76.32;96360.19;5075765;28;20186;-58
2021/03/09 04:41:10;;;;;;;14.33;9.70;;;;;;;0.89;78.49;96362.19;5072308;28;20425;-63
2021/03/09 04:43:37;;;;;;;12.87;10.53;;;;;;;1.09;77.13;96365.25;5075706;28;20498;-66
2021/03/09 04:46:03;;;;;;;15.70;10.90;;;;;;;1.31;75.80;96361.91;5056383;28;20180;-65
2021/03/09 04:48:29;;;;;;;13.47;11.27;;;;;;;1.65;74.39;96370.94;5055554;28;20926;-58
2021/03/09 04:51:02;;;;;;;12.00;10.67;;;;;;;1.90;73.79;96361.28;5055343;28;20171;-66
2021/03/09 04:53:29;;;;;;;12.40;10.67;;;;;;;1.88;72.30;96356.25;5055619;28;20900;-58
2021/03/09 04:55:58;;;;;;;12.20;10.30;;;;;;;2.04;72.53;96357.94;5055224;28;20895;-59
2021/03/09 04:58:24;;;;;;;14.47;10.90;;;;;;;2.06;72.35;96361.16;5056140;28;20446;-65
2021/03/09 05:00:50;;;;;;;12.30;10.37;;;;;;;2.24;71.04;96351.31;5054954;28;20421;-59
2021/03/09 05:03:16;;;;;;;12.63;10.60;;;;;;;2.27;70.25;96352.72;5055260;28;20200;-66
2021/03/09 05:05:41;;;;;;;13.90;10.53;;;;;;;2.29;70.06;96355.94;5055024;28;20799;-66
2021/03/09 05:08:07;;;;;;;11.87;10.07;;;;;;;2.42;69.89;96354.38;5054693;28;20197;-58
2021/03/09 05:10:32;;;;;;;10.80;9.70;;;;;;;2.46;68.80;96363.44;5065739;28;20211;-64
2021/03/09 05:12:57;;;;;;;12.70;10.37;;;;;;;2.50;68.61;96354.31;5075393;28;20195;-58
2021/03/09 05:15:23;;;;;;;12.60;10.53;;;;;;;2.51;68.46;96349.94;5073896;28;20658;-66
2021/03/09 05:17:49;;;;;;;13.77;10.53;;;;;;;2.44;68.91;96351.63;5074466;28;20553;-66
2021/03/09 05:20:15;;;;;;;11.60;9.60;;;;;;;2.32;68.24;96361.59;5058282;28;20187;-66
2021/03/09 05:22:41;;;;;;;13.10;10.73;;;;;;;2.32;68.18;96363.41;5054958;28;20251;-58
2021/03/09 05:25:10;;;;;;;11.13;9.73;;;;;;;2.24;68.30;96374.63;5054483;28;20440;-59
2021/03/09 05:27:35;;;;;;;12.97;10.03;;;;;;;1.87;69.44;96366.78;5054298;28;20426;-66
2021/03/09 05:30:03;;;;;;;12.23;10.90;;;;;;;2.11;69.95;96361.44;5064173;28;20426;-58
2021/03/09 05:32:29;;;;;;;21.80;11.37;;;;;;;2.28;68.77;96367.31;5074591;28;20213;-58
2021/03/09 05:34:54;;;;;;;14.83;11.17;;;;;;;2.46;68.74;96363.44;5073277;28;20418;-58
2021/03/09 05:37:19;;;;;;;12.00;10.10;;;;;;;2.45;68.19;96366.19;5072321;28;20167;-57
2021/03/09 05:39:45;;;;;;;13.50;10.73;;;;;;;2.47;68.04;96372.00;5060429;28;20638;-66
2021/03/09 05:42:11;;;;;;;11.40;10.23;;;;;;;2.19;69.08;96369.16;5054576;28;20171;-66
2021/03/09 05:44:37;;;;;;;13.90;10.70;;;;;;;1.99;70.01;96368.78;5054312;28;20268;-58
2021/03/09 05:47:06;;;;;;;13.27;10.47;;;;;;;1.99;70.74;96368.00;5053822;28;20419;-58
2021/03/09 05:49:31;;;;;;;15.90;10.87;;;;;;;2.22;70.35;96371.41;5054458;28;20811;-65
2021/03/09 05:51:58;;;;;;;12.77;11.40;;;;;;;2.17;69.75;96375.50;5054289;28;20540;-58
2021/03/09 05:54:24;;;;;;;15.63;11.40;;;;;;;1.86;71.40;96375.53;5054383;28;20202;-59
2021/03/09 05:56:50;;;;;;;13.13;11.13;;;;;;;1.93;70.75;96377.28;5054861;28;20458;-58
2021/03/09 05:59:16;;;;;;;12.90;11.20;;;;;;;1.70;72.40;96384.19;5054085;28;20558;-65
2021/03/09 06:01:41;;;;;;;13.93;10.73;;;;;;;1.44;73.35;96388.03;5054773;28;20178;-65
2021/03/09 06:04:07;;;;;;;13.93;11.03;;;;;;;1.88;72.70;96378.75;5054023;28;20408;-58
2021/03/09 06:06:33;;;;;;;13.73;11.20;;;;;;;2.16;71.30;96371.31;5053654;28;20180;-58
2021/03/09 06:08:59;;;;;;;18.20;12.20;;;;;;;2.16;71.38;96377.25;5053934;28;20283;-58
2021/03/09 06:11:25;;;;;;;13.10;10.80;;;;;;;2.20;70.95;96370.75;5053740;28;20445;-58
2021/03/09 06:13:50;;;;;;;13.43;11.87;;;;;;;2.35;70.73;96376.00;5054015;28;20418;-65
2021/03/09 06:16:16;;;;;;;14.13;10.70;;;;;;;2.60;69.89;96372.22;5053136;28;20237;-65
2021/03/09 06:18:55;;;;;;;14.90;12.40;;;;;;;2.67;69.34;96378.31;5053720;28;20657;-58
2021/03/09 06:21:21;;;;;;;16.07;12.47;;;;;;;2.68;68.71;96382.53;5053826;28;20426;-58
2021/03/09 06:23:46;;;;;;;15.00;11.73;;;;;;;2.72;69.21;96378.56;5053992;28;20422;-59
2021/03/09 06:26:37;;;;;;;15.03;12.70;;;;;;;2.71;69.35;96374.38;5053650;28;20283;-58
2021/03/09 06:29:16;;;;;;;15.40;11.93;;;;;;;2.69;69.67;96378.94;5053588;28;20198;-65
2021/03/09 06:32:03;;;;;;;17.37;11.70;;;;;;;2.86;69.58;96380.41;5053253;28;20465;-65
2021/03/09 06:34:35;;;;;;;19.90;13.23;;;;;;;2.99;69.08;96376.19;5053311;28;20506;-65
2021/03/09 06:37:10;;;;;;;16.07;13.40;;;;;;;3.08;68.52;96380.31;5062884;28;20429;-65
2021/03/09 06:39:43;;;;;;;14.07;11.70;;;;;;;3.11;68.20;96376.56;5071855;28;20417;-65
2021/03/09 06:42:09;;;;;;;13.60;11.70;;;;;;;3.22;68.46;96378.72;5073536;28;20818;-58
2021/03/09 06:44:36;;;;;;;16.90;13.30;;;;;;;3.26;68.26;96372.19;5073417;28;20414;-57
2021/03/09 06:47:01;;;;;;;16.63;12.47;;;;;;;3.29;68.67;96382.19;5072654;28;20522;-65
2021/03/09 06:49:27;;;;;;;15.30;12.20;;;;;;;3.34;68.48;96372.06;5073328;28;20793;-65
2021/03/09 06:51:52;;;;;;;18.50;13.47;;;;;;;3.34;68.92;96377.28;5060667;28;20200;-65
2021/03/09 06:54:18;;;;;;;17.37;12.80;;;;;;;3.30;68.15;96383.81;5054357;28;20174;-65
2021/03/09 06:56:45;;;;;;;16.37;12.67;;;;;;;3.17;69.70;96379.25;5062832;28;20171;-64
2021/03/09 06:59:24;;;;;;;16.20;12.77;;;;;;;3.08;69.86;96384.69;5053274;28;20257;-58
2021/03/09 07:02:06;;;;;;;16.30;12.53;;;;;;;3.27;69.93;96384.16;5053232;28;20410;-58
2021/03/09 07:04:32;;;;;;;16.43;12.57;;;;;;;3.55;69.12;96386.94;5053536;28;20416;-65
2021/03/09 07:06:57;;;;;;;17.93;13.30;;;;;;;3.60;69.56;96384.59;5053835;28;20432;-65
2021/03/09 07:09:23;;;;;;;19.70;13.83;;;;;;;3.67;69.10;96388.88;5053131;28;20421;-58
2021/03/09 07:11:49;;;;;;;16.43;13.87;;;;;;;3.76;69.01;96384.38;5052650;28;20558;-65
2021/03/09 07:14:16;;;;;;;19.87;13.80;;;;;;;3.86;68.57;96395.28;5053439;28;20206;-64
2021/03/09 07:16:47;;;;;;;17.47;14.57;;;;;;;3.92;68.66;96395.34;5052443;28;20847;-57
2021/03/09 07:19:14;;;;;;;19.33;15.17;;;;;;;3.91;69.56;96398.94;5053147;28;20926;-65
2021/03/09 07:21:42;;;;;;;19.30;15.70;;;;;;;3.95;69.41;96399.41;5054230;28;20428;-58
2021/03/09 07:24:09;;;;;;;25.17;18.07;;;;;;;3.98;70.25;96406.81;5069500;28;20473;-58
2021/03/09 07:26:38;;;;;;;26.07;19.00;;;;;;;4.03;70.94;96404.47;5069173;28;20415;-64
2021/03/09 07:29:07;;;;;;;28.47;19.70;;;;;;;4.16;70.66;96394.22;5069328;28;20468;-63
2021/03/09 07:31:35;;;;;;;23.90;19.77;;;;;;;4.27;70.83;96403.31;5056271;28;20485;-58
2021/03/09 07:34:01;;;;;;;26.97;20.30;;;;;;;4.41;69.97;96400.66;5066375;28;20580;-60
2021/03/09 07:36:27;;;;;;;24.77;20.00;;;;;;;4.67;69.43;96400.88;5058446;28;20419;-58
2021/03/09 07:38:56;;;;;;;28.17;20.10;;;;;;;4.68;69.10;96406.88;5049176;28;20434;-60
2021/03/09 07:41:21;;;;;;;30.60;19.67;;;;;;;4.87;68.84;96406.25;5049316;28;20437;-57
2021/03/09 07:43:48;;;;;;;23.97;18.77;;;;;;;4.85;68.46;96406.44;5048912;28;20457;-63
2021/03/09 07:46:13;;;;;;;22.77;18.40;;;;;;;5.10;67.86;96399.00;5048999;28;20179;-56
2021/03/09 07:48:39;;;;;;;22.80;18.30;;;;;;;5.23;67.89;96402.50;5053654;28;20447;-57
2021/03/09 07:51:05;;;;;;;24.93;17.10;;;;;;;5.37;68.09;96402.56;5048663;28;20672;-59
2021/03/09 07:53:31;;;;;;;23.07;17.60;;;;;;;5.30;67.05;96412.94;5052502;28;20712;-57
2021/03/09 07:56:13;;;;;;;24.80;17.30;;;;;;;5.35;67.33;96409.75;5058715;28;20426;-58
2021/03/09 07:58:39;;;;;;;23.07;17.40;;;;;;;5.28;67.63;96406.31;5052571;28;20480;-61
2021/03/09 08:01:07;;;;;;;21.57;16.77;;;;;;;5.52;66.27;96406.66;5049065;28;20456;-58
2021/03/09 08:03:37;;;;;;;23.77;18.20;;;;;;;5.71;66.63;96405.94;5048841;28;20414;-58
2021/03/09 08:06:04;;;;;;;19.70;15.90;;;;;;;5.63;66.42;96402.69;5048674;28;20444;-64
2021/03/09 08:08:55;;;;;;;23.40;17.67;;;;;;;5.82;66.29;96405.38;5043704;28;21190;-64
2021/03/09 08:11:20;;;;;;;24.17;17.63;;;;;;;5.97;65.35;96400.88;5052602;28;20582;-59
2021/03/09 08:13:47;;;;;;;20.37;16.40;;;;;;;5.95;66.07;96400.25;5035529;28;20513;-62
2021/03/09 08:16:25;;;;;;;19.30;15.97;;;;;;;6.03;64.90;96400.06;5032397;28;20191;-62
2021/03/09 08:18:52;;;;;;;21.20;16.73;;;;;;;6.03;64.94;96402.66;5051667;28;20449;-61
2021/03/09 08:21:19;;;;;;;22.17;16.67;;;;;;;6.07;65.05;96401.28;5033181;28;20917;-57
2021/03/09 08:23:44;;;;;;;23.07;17.10;;;;;;;6.28;64.89;96397.72;5051746;28;20921;-60
2021/03/09 08:26:22;;;;;;;27.30;17.97;;;;;;;6.15;65.54;96408.13;5051925;28;20508;-58
2021/03/09 08:28:48;;;;;;;21.10;15.37;;;;;;;6.20;62.12;96400.50;5050661;28;20672;-57
2021/03/09 08:31:14;;;;;;;23.83;15.97;;;;;;;6.19;63.93;96409.34;5045935;28;20552;-59
2021/03/09 08:33:43;;;;;;;24.00;15.80;;;;;;;6.37;63.09;96404.38;5047437;28;20473;-65
2021/03/09 08:36:21;;;;;;;21.23;15.97;;;;;;;6.48;64.06;96406.41;5051313;28;20199;-58
2021/03/09 08:39:05;;;;;;;20.97;17.37;;;;;;;6.49;62.38;96409.78;5065511;28;20453;-60
2021/03/09 08:44:20;;;;;;;23.07;16.13;;;;;;;6.44;62.30;96399.97;5055859;28;20430;-63
2021/03/09 08:46:53;;;;;;;21.90;16.07;;;;;;;6.62;62.58;96402.78;5031568;28;20422;-59
2021/03/09 08:49:33;;;;;;;23.77;15.83;;;;;;;6.50;63.47;96398.38;5048839;28;21247;-58
2021/03/09 08:52:00;;;;;;;22.23;16.67;;;;;;;6.73;63.47;96401.38;5051956;28;20465;-61
2021/03/09 08:54:31;;;;;;;22.53;17.33;;;;;;;7.00;62.20;96392.53;5051900;28;20410;-63
2021/03/09 08:57:00;;;;;;;21.07;16.17;;;;;;;6.98;62.38;96395.34;5050940;28;20822;-62
2021/03/09 08:59:28;;;;;;;21.80;16.40;;;;;;;7.09;61.49;96392.13;5061339;28;21218;-59
2021/03/09 09:02:03;;;;;;;22.20;15.73;;;;;;;7.26;60.38;96397.75;5051611;28;20411;-58
2021/03/09 09:04:28;;;;;;;19.93;16.93;;;;;;;7.36;61.20;96398.13;5055749;28;20452;-62
2021/03/09 09:06:53;;;;;;;22.70;17.30;;;;;;;7.52;58.82;96395.06;5071384;28;20514;-60
2021/03/09 09:09:30;;;;;;;19.40;16.00;;;;;;;7.65;59.34;96392.41;5070971;28;20203;-62
2021/03/09 09:11:56;;;;;;;18.80;15.30;;;;;;;7.63;58.91;96394.41;5068224;28;20282;-63
2021/03/09 09:14:22;;;;;;;19.53;16.70;;;;;;;7.67;57.91;96389.56;5075003;28;20560;-63
2021/03/09 09:16:47;;;;;;;22.67;16.43;;;;;;;7.56;58.65;96385.78;5074128;28;20497;-63
2021/03/09 09:19:13;;;;;;;17.53;14.27;;;;;;;7.63;57.44;96381.34;5067547;28;20202;-59
2021/03/09 09:21:46;;;;;;;18.97;14.10;;;;;;;7.58;58.81;96381.16;5054822;28;20522;-58
2021/03/09 09:24:17;;;;;;;21.13;15.90;;;;;;;7.84;58.80;96385.50;5055816;28;20251;-63
2021/03/09 09:26:42;;;;;;;22.13;16.00;;;;;;;8.04;59.21;96388.84;5055393;28;20459;-62
2021/03/09 09:29:08;;;;;;;20.10;15.63;;;;;;;7.97;59.05;96385.44;5054481;28;20510;-59
2021/03/09 09:31:33;;;;;;;16.63;14.00;;;;;;;8.24;56.76;96386.94;5054565;28;20266;-59
2021/03/09 09:33:59;;;;;;;15.20;12.50;;;;;;;8.40;55.15;96386.44;5054046;28;20195;-58
2021/03/09 09:36:25;;;;;;;14.20;12.40;;;;;;;8.56;54.29;96385.13;5054194;28;20178;-58
2021/03/09 09:38:54;;;;;;;20.53;12.90;;;;;;;8.65;53.80;96384.66;5054550;28;20545;-64
2021/03/09 09:41:21;;;;;;;16.33;13.70;;;;;;;8.80;53.94;96384.34;5070539;28;20425;-59
2021/03/09 09:43:47;;;;;;;14.57;12.23;;;;;;;8.86;54.23;96379.03;5074311;28;20454;-64
2021/03/09 09:46:20;;;;;;;12.53;11.27;;;;;;;8.51;52.46;96382.34;5073858;28;20453;-64
2021/03/09 09:48:46;;;;;;;14.00;11.37;;;;;;;8.60;52.67;96381.06;5064591;28;20676;-60
2021/03/09 09:51:14;;;;;;;13.70;11.33;;;;;;;8.69;53.36;96382.41;5054249;28;20418;-60
2021/03/09 09:53:41;;;;;;;12.00;10.17;;;;;;;8.94;52.71;96384.03;5055850;28;20425;-59
2021/03/09 09:56:12;;;;;;;12.43;10.60;;;;;;;8.92;51.36;96387.88;5053911;28;20413;-60
2021/03/09 09:58:47;;;;;;;13.73;11.03;;;;;;;8.81;51.38;96389.38;5053981;28;20432;-58
2021/03/09 10:01:15;;;;;;;11.40;10.20;;;;;;;8.46;51.92;96392.66;5053362;28;20418;-58
2021/03/09 10:03:50;;;;;;;12.13;10.83;;;;;;;8.73;51.07;96389.63;5074213;28;20434;-61
2021/03/09 10:06:17;;;;;;;12.70;10.87;;;;;;;8.89;50.59;96383.88;5073302;28;20421;-58
2021/03/09 10:08:44;;;;;;;15.37;13.00;;;;;;;8.76;54.07;96385.78;5066057;28;20960;-58
2021/03/09 10:11:10;;;;;;;16.77;13.20;;;;;;;9.15;52.92;96382.81;5053797;28;20416;-58
2021/03/09 10:13:36;;;;;;;17.60;13.17;;;;;;;9.49;51.80;96377.06;5053477;28;20418;-57
2021/03/09 10:16:02;;;;;;;12.73;11.33;;;;;;;9.15;49.17;96383.63;5053532;28;20407;-61
2021/03/09 10:18:35;;;;;;;16.43;11.57;;;;;;;8.91;51.01;96383.66;5068335;28;20565;-57
2021/03/09 10:21:02;;;;;;;15.07;11.27;;;;;;;9.40;50.21;96386.22;5073682;28;20160;-57
2021/03/09 10:23:28;;;;;;;13.10;10.57;;;;;;;9.65;50.19;96389.59;5073678;28;20405;-57
2021/03/09 10:26:02;;;;;;;10.53;9.53;;;;;;;9.79;49.53;96384.97;5073978;28;20399;-61
2021/03/09 10:28:28;;;;;;;11.73;10.37;;;;;;;9.88;49.49;96381.03;5063864;28;20550;-56
2021/03/09 10:30:54;;;;;;;12.93;10.90;;;;;;;9.99;48.70;96380.28;5068583;28;20410;-56
2021/03/09 10:33:20;;;;;;;13.50;10.70;;;;;;;9.75;47.77;96384.63;5065236;28;20864;-60
2021/03/09 10:36:07;;;;;;;11.40;10.20;;;;;;;9.87;47.55;96375.00;5053191;28;20542;-63
2021/03/09 10:38:33;;;;;;;11.73;10.37;;;;;;;9.76;47.58;96377.56;5053560;28;20431;-57
2021/03/09 10:40:59;;;;;;;11.93;10.80;;;;;;;9.97;48.82;96372.63;5053458;28;20405;-63
2021/03/09 10:43:48;;;;;;;13.27;10.40;;;;;;;10.18;48.55;96366.94;5053471;28;20748;-63
2021/03/09 10:46:14;;;;;;;11.30;9.40;;;;;;;10.22;47.82;96357.59;5053057;28;20462;-57
2021/03/09 10:48:41;;;;;;;9.10;8.07;;;;;;;10.61;46.55;96366.72;5053109;28;20778;-57
2021/03/09 10:51:21;;;;;;;10.77;8.80;;;;;;;10.34;44.82;96365.53;5053440;28;20419;-63
2021/03/09 10:53:47;;;;;;;11.03;9.93;;;;;;;10.22;46.64;96357.59;5053542;28;20917;-57
2021/03/09 10:56:13;;;;;;;10.47;9.47;;;;;;;10.17;45.26;96362.72;5052714;28;20494;-63
2021/03/09 10:58:39;;;;;;;9.93;8.93;;;;;;;10.38;46.07;96358.00;5053222;28;20189;-63
2021/03/09 11:01:05;;;;;;;10.20;9.27;;;;;;;10.27;46.03;96365.59;5053126;28;20789;-63
2021/03/09 11:03:31;;;;;;;10.27;9.27;;;;;;;10.57;45.09;96370.03;5053184;28;20495;-57
2021/03/09 11:05:56;;;;;;;10.87;9.67;;;;;;;10.70;44.68;96367.19;5052889;28;20171;-62
2021/03/09 11:08:23;;;;;;;11.33;10.20;;;;;;;10.84;43.38;96369.41;5053269;28;20715;-57
2021/03/09 11:10:56;;;;;;;10.87;9.77;;;;;;;10.91;42.21;96364.03;5052990;28;20641;-63
2021/03/09 11:13:22;;;;;;;9.47;8.67;;;;;;;11.01;41.50;96366.91;5053103;28;20806;-63
2021/03/09 11:15:48;;;;;;;11.43;9.20;;;;;;;10.50;41.85;96367.50;5053017;28;20405;-57
2021/03/09 11:18:13;;;;;;;9.90;8.97;;;;;;;10.10;41.90;96362.00;5052625;28;20207;-57
2021/03/09 11:20:40;;;;;;;11.13;8.80;;;;;;;10.08;42.35;96366.66;5053120;28;20170;-63
2021/03/09 11:23:06;;;;;;;10.40;9.30;;;;;;;10.31;42.47;96366.75;5053139;28;20167;-57
2021/03/09 11:25:33;;;;;;;10.50;9.40;;;;;;;10.63;42.36;96366.50;5052670;28;20465;-57
2021/03/09 11:27:59;;;;;;;11.20;10.10;;;;;;;10.70;42.33;96357.50;5052482;28;20210;-63
2021/03/09 11:30:24;;;;;;;10.27;9.30;;;;;;;10.61;40.98;96363.28;5053018;28;20876;-63
2021/03/09 11:32:50;;;;;;;10.23;9.23;;;;;;;10.72;41.96;96360.69;5052635;28;20201;-57
2021/03/09 11:35:15;;;;;;;11.13;10.07;;;;;;;10.07;40.93;96359.00;5053090;28;20175;-56